Time;durP1;ratioP1;P1;durP2;ratioP2;P2;SDS_P1;SDS_P2;PMS_P1;PMS_P2;Temp;Humidity;BMP_temperature;BMP_pressure;BME280_temperature;BME280_humidity;BME280_pressure;Samples;Min_cycle;Max_cycle;Signal;HPM_P1;HPM_P2
2021/05/05 00:00:27;;;;;;;7.40;2.50;;;17.00;99.90;;;;;;5049623;28;20282;-77
2021/05/05 00:02:55;;;;;;;7.17;2.40;;;17.00;99.90;;;;;;5051711;28;20229;-76
2021/05/05 00:05:22;;;;;;;7.53;2.40;;;17.00;99.90;;;;;;5052323;28;20578;-79
2021/05/05 00:07:50;;;;;;;6.43;3.10;;;17.00;99.90;;;;;;5052899;28;20233;-78
2021/05/05 00:10:18;;;;;;;9.30;2.80;;;17.00;99.90;;;;;;5051756;28;20183;-81
2021/05/05 00:12:46;;;;;;;10.27;2.77;;;17.00;99.90;;;;;;5051868;28;20218;-81
2021/05/05 00:15:25;;;;;;;9.60;3.07;;;17.10;99.90;;;;;;5051307;28;20246;-82
2021/05/05 00:17:52;;;;;;;5.70;2.57;;;17.20;99.90;;;;;;5052549;28;20185;-79
2021/05/05 00:20:22;;;;;;;6.57;2.73;;;17.20;99.90;;;;;;5046236;28;20180;-74
2021/05/05 00:22:50;;;;;;;7.30;2.60;;;17.30;99.90;;;;;;5050994;28;20187;-76
2021/05/05 00:25:19;;;;;;;9.80;2.80;;;17.40;99.90;;;;;;5050490;28;20677;-73
2021/05/05 00:27:52;;;;;;;5.83;2.70;;;17.50;99.90;;;;;;5051891;28;20195;-76
2021/05/05 00:30:20;;;;;;;9.03;2.83;;;17.60;99.90;;;;;;5051259;28;20333;-71
2021/05/05 00:32:48;;;;;;;4.90;2.53;;;17.70;99.90;;;;;;5051900;28;20314;-72
2021/05/05 00:35:15;;;;;;;6.97;2.03;;;17.80;99.90;;;;;;5051578;28;20230;-73
2021/05/05 00:37:42;;;;;;;3.97;1.63;;;17.70;99.90;;;;;;5051181;28;20582;-72
2021/05/05 00:40:11;;;;;;;4.33;2.30;;;17.70;99.90;;;;;;5051807;28;20175;-73
2021/05/05 00:42:40;;;;;;;4.83;2.00;;;17.80;99.90;;;;;;5051905;28;20183;-74
2021/05/05 00:45:13;;;;;;;7.90;2.50;;;17.90;99.90;;;;;;5050948;28;20211;-72
2021/05/05 00:47:42;;;;;;;4.67;1.90;;;18.00;99.90;;;;;;5051702;28;20175;-71
2021/05/05 00:50:13;;;;;;;4.20;2.30;;;18.10;99.90;;;;;;5052389;28;20176;-72
2021/05/05 00:52:40;;;;;;;6.33;2.17;;;18.30;99.90;;;;;;5051427;28;20215;-71
2021/05/05 00:55:09;;;;;;;6.37;2.60;;;18.40;99.90;;;;;;5051809;28;20643;-71
2021/05/05 00:57:38;;;;;;;7.30;1.87;;;18.70;99.90;;;;;;5050554;28;20540;-70
2021/05/05 01:00:08;;;;;;;7.00;1.97;;;18.80;99.90;;;;;;5042944;28;20176;-70
2021/05/05 01:02:37;;;;;;;7.40;2.00;;;19.00;99.90;;;;;;5046567;28;20609;-70
2021/05/05 01:05:06;;;;;;;5.40;1.60;;;19.10;99.90;;;;;;5050816;28;20176;-70
2021/05/05 01:07:35;;;;;;;5.57;1.87;;;19.30;99.90;;;;;;5051453;28;20223;-73
2021/05/05 01:10:03;;;;;;;4.07;2.00;;;19.20;99.90;;;;;;5047906;28;20183;-71
2021/05/05 01:12:31;;;;;;;4.20;2.03;;;19.10;99.90;;;;;;5054455;28;20702;-75
2021/05/05 01:14:58;;;;;;;8.60;1.90;;;19.00;99.90;;;;;;5051420;28;20169;-71
2021/05/05 01:17:27;;;;;;;5.23;1.97;;;18.80;99.90;;;;;;5045821;28;20181;-71
2021/05/05 01:19:55;;;;;;;5.83;1.43;;;18.70;99.90;;;;;;5045947;28;20261;-71
2021/05/05 01:22:22;;;;;;;3.80;1.47;;;18.60;99.90;;;;;;5031142;28;20222;-70
2021/05/05 01:24:50;;;;;;;8.13;1.80;;;18.70;99.90;;;;;;5048640;28;20183;-71
2021/05/05 01:27:17;;;;;;;8.20;1.80;;;18.70;99.90;;;;;;5063148;28;20179;-70
2021/05/05 01:29:48;;;;;;;7.20;1.97;;;18.80;99.90;;;;;;5050707;28;20712;-71
2021/05/05 01:32:17;;;;;;;4.90;1.40;;;18.80;99.90;;;;;;5054821;28;20248;-75
2021/05/05 01:34:45;;;;;;;12.27;2.37;;;18.80;99.90;;;;;;5062846;28;20184;-71
2021/05/05 01:37:12;;;;;;;7.00;1.50;;;18.40;99.90;;;;;;5060594;28;20196;-71
2021/05/05 01:39:41;;;;;;;4.00;1.00;;;17.90;99.90;;;;;;5053690;28;20215;-71
2021/05/05 01:42:08;;;;;;;6.93;1.57;;;17.60;99.90;;;;;;5057956;28;20183;-75
2021/05/05 01:44:40;;;;;;;3.50;1.00;;;17.50;99.90;;;;;;5052538;28;20219;-73
2021/05/05 01:47:13;;;;;;;4.30;1.10;;;17.30;99.90;;;;;;5053233;28;20195;-72
2021/05/05 01:49:48;;;;;;;3.73;1.40;;;17.30;99.90;;;;;;5053891;28;20180;-73
2021/05/05 01:52:17;;;;;;;5.27;1.60;;;17.40;99.90;;;;;;5053232;28;20211;-74
2021/05/05 01:54:45;;;;;;;7.43;1.70;;;17.40;99.90;;;;;;5053987;28;20653;-75
2021/05/05 01:57:39;;;;;;;5.00;1.67;;;17.50;99.90;;;;;;5052007;28;20192;-74
2021/05/05 02:00:15;;;;;;;3.53;1.47;;;17.50;99.90;;;;;;5048567;28;20190;-74
2021/05/05 02:02:43;;;;;;;4.77;1.67;;;17.60;99.90;;;;;;5050088;28;20183;-73
2021/05/05 02:05:12;;;;;;;5.27;1.63;;;17.70;99.90;;;;;;5053481;28;20184;-75
2021/05/05 02:07:40;;;;;;;6.37;1.93;;;17.80;99.90;;;;;;5054163;28;20653;-75
2021/05/05 02:10:10;;;;;;;4.37;1.50;;;17.90;99.90;;;;;;5053980;28;20279;-74
2021/05/05 02:12:37;;;;;;;7.63;1.70;;;17.90;99.90;;;;;;5050479;28;20212;-74
2021/05/05 02:15:07;;;;;;;6.73;2.10;;;18.00;99.90;;;;;;5051174;28;20514;-75
2021/05/05 02:17:35;;;;;;;8.17;1.97;;;18.10;99.90;;;;;;5053917;28;20204;-74
2021/05/05 02:20:03;;;;;;;13.87;2.40;;;18.10;99.90;;;;;;5053573;28;20199;-71
2021/05/05 02:22:30;;;;;;;9.73;2.60;;;18.00;99.90;;;;;;5051692;28;20264;-69
2021/05/05 02:24:57;;;;;;;11.70;2.80;;;18.00;99.90;;;;;;5053229;28;20175;-71
2021/05/05 02:27:26;;;;;;;7.83;2.30;;;17.90;99.90;;;;;;5053458;28;20722;-73
2021/05/05 02:29:53;;;;;;;4.37;2.10;;;18.00;99.90;;;;;;5052839;28;20211;-73
2021/05/05 02:32:23;;;;;;;10.30;2.20;;;18.10;99.90;;;;;;5052580;28;20224;-74
2021/05/05 02:34:52;;;;;;;6.90;1.73;;;18.20;99.90;;;;;;5052736;28;20179;-72
2021/05/05 02:37:20;;;;;;;8.97;1.33;;;18.40;99.90;;;;;;5051513;28;20176;-74
2021/05/05 02:39:47;;;;;;;3.30;0.97;;;18.40;99.90;;;;;;5053103;28;20175;-75
2021/05/05 02:42:17;;;;;;;4.03;1.00;;;18.40;99.90;;;;;;5053175;28;20187;-74
2021/05/05 02:44:48;;;;;;;6.13;1.23;;;18.50;99.90;;;;;;5050078;28;20241;-74
2021/05/05 02:47:18;;;;;;;7.50;1.20;;;18.70;99.90;;;;;;5051243;28;20176;-73
2021/05/05 02:49:46;;;;;;;6.20;1.23;;;18.70;99.90;;;;;;5052668;28;20322;-75
2021/05/05 02:52:13;;;;;;;13.47;1.43;;;19.20;99.90;;;;;;5050563;28;20200;-76
2021/05/05 02:54:41;;;;;;;7.00;1.30;;;19.70;99.90;;;;;;5052721;28;20223;-74
2021/05/05 02:57:08;;;;;;;9.77;1.40;;;19.80;99.90;;;;;;5052757;28;20199;-73
2021/05/05 02:59:36;;;;;;;7.27;1.27;;;19.70;99.90;;;;;;5050485;28;20184;-72
2021/05/05 03:02:05;;;;;;;9.17;1.33;;;19.40;99.90;;;;;;5056149;28;20526;-73
2021/05/05 03:04:32;;;;;;;10.10;1.53;;;18.90;99.90;;;;;;5051905;28;20180;-73
2021/05/05 03:06:59;;;;;;;11.27;2.23;;;18.50;99.90;;;;;;5052751;28;20689;-73
2021/05/05 03:09:28;;;;;;;5.73;1.07;;;18.40;99.90;;;;;;5052709;28;20191;-74
2021/05/05 03:11:59;;;;;;;9.23;1.00;;;18.40;99.90;;;;;;5052007;28;20303;-75
2021/05/05 03:14:28;;;;;;;5.83;1.43;;;18.50;99.90;;;;;;5051288;28;20183;-75
2021/05/05 03:16:57;;;;;;;6.47;1.37;;;18.50;99.90;;;;;;5055504;28;20271;-73
2021/05/05 03:19:25;;;;;;;6.83;1.20;;;18.50;99.90;;;;;;5068145;28;20180;-74
2021/05/05 03:21:54;;;;;;;7.17;1.43;;;18.50;99.90;;;;;;5056677;28;20559;-75
2021/05/05 03:24:22;;;;;;;7.27;1.43;;;18.50;99.90;;;;;;5048033;28;20180;-78
2021/05/05 03:26:49;;;;;;;5.33;1.30;;;18.50;99.90;;;;;;5049885;28;20179;-74
2021/05/05 03:29:17;;;;;;;9.67;1.03;;;18.40;99.90;;;;;;5049526;28;20498;-73
2021/05/05 03:31:44;;;;;;;7.17;1.27;;;18.40;99.90;;;;;;5052241;28;20595;-74
2021/05/05 03:34:12;;;;;;;10.80;1.73;;;18.40;99.90;;;;;;5051201;28;20283;-74
2021/05/05 03:36:40;;;;;;;5.10;1.50;;;18.50;99.90;;;;;;5051397;28;20198;-70
2021/05/05 03:39:08;;;;;;;8.00;1.30;;;18.50;99.90;;;;;;5049086;28;20271;-75
2021/05/05 03:41:35;;;;;;;7.30;1.03;;;18.50;99.90;;;;;;5050026;28;20210;-77
2021/05/05 03:44:03;;;;;;;5.10;1.00;;;18.60;99.90;;;;;;5051772;28;20191;-76
2021/05/05 03:46:30;;;;;;;5.67;1.57;;;18.70;99.90;;;;;;5049310;28;20201;-74
2021/05/05 03:48:58;;;;;;;5.53;1.13;;;18.90;99.90;;;;;;5051721;28;20203;-77
2021/05/05 03:51:26;;;;;;;7.60;1.50;;;19.10;99.90;;;;;;5052440;28;20674;-73
2021/05/05 03:53:53;;;;;;;4.47;1.13;;;19.40;99.90;;;;;;5051348;28;20849;-76
2021/05/05 03:56:21;;;;;;;8.13;1.40;;;19.90;99.90;;;;;;5051478;28;20233;-78
2021/05/05 03:58:48;;;;;;;9.47;1.80;;;20.30;99.90;;;;;;5051169;28;20188;-74
2021/05/05 04:01:15;;;;;;;4.40;1.00;;;20.30;99.90;;;;;;5053016;28;20694;-74
2021/05/05 04:03:43;;;;;;;8.50;1.60;;;20.50;99.90;;;;;;5043694;28;20180;-72
2021/05/05 04:06:10;;;;;;;7.27;1.73;;;20.70;99.90;;;;;;5050283;28;20187;-75
2021/05/05 04:08:38;;;;;;;4.37;1.30;;;21.10;99.90;;;;;;5052147;28;20187;-75
2021/05/05 04:11:05;;;;;;;6.23;0.90;;;21.50;99.90;;;;;;5052410;28;20198;-72
2021/05/05 04:13:33;;;;;;;5.30;0.80;;;21.50;99.90;;;;;;5052641;28;20184;-72
2021/05/05 04:16:04;;;;;;;5.50;1.10;;;21.90;99.90;;;;;;5052249;28;20195;-73
2021/05/05 04:18:31;;;;;;;3.27;0.80;;;22.50;99.90;;;;;;5052159;28;20183;-75
2021/05/05 04:21:03;;;;;;;6.30;1.10;;;22.70;99.90;;;;;;5050500;28;20270;-72
2021/05/05 04:23:33;;;;;;;6.70;1.47;;;22.80;99.90;;;;;;5049819;28;20205;-72
2021/05/05 04:26:01;;;;;;;4.40;1.60;;;22.60;99.90;;;;;;5050419;28;20246;-72
2021/05/05 04:28:29;;;;;;;2.83;1.00;;;22.10;99.90;;;;;;5051893;28;20184;-73
2021/05/05 04:30:56;;;;;;;2.87;0.70;;;21.90;99.90;;;;;;5051492;28;20235;-72
2021/05/05 04:33:24;;;;;;;2.90;0.83;;;21.60;99.90;;;;;;5051349;28;20202;-70
2021/05/05 04:35:51;;;;;;;3.47;0.87;;;21.80;99.90;;;;;;5051542;28;20184;-73
2021/05/05 04:38:19;;;;;;;5.07;1.10;;;22.10;99.90;;;;;;5050090;28;20210;-72
2021/05/05 04:40:46;;;;;;;2.37;0.90;;;22.10;99.90;;;;;;5050452;28;20278;-75
2021/05/05 04:43:13;;;;;;;4.17;0.77;;;21.60;99.90;;;;;;5051072;28;20191;-72
2021/05/05 04:45:41;;;;;;;2.77;0.90;;;21.00;99.90;;;;;;5049366;28;20187;-73
2021/05/05 04:48:08;;;;;;;4.13;1.17;;;20.50;99.90;;;;;;5050746;28;20214;-71
2021/05/05 04:50:36;;;;;;;3.23;1.10;;;20.30;99.90;;;;;;5050793;28;20183;-75
2021/05/05 04:53:04;;;;;;;5.23;0.90;;;20.20;99.90;;;;;;5050019;28;20528;-72
2021/05/05 04:55:31;;;;;;;4.40;1.20;;;19.80;99.90;;;;;;5048178;28;20199;-73
2021/05/05 04:57:58;;;;;;;3.80;0.87;;;19.70;99.90;;;;;;5046431;28;20199;-73
2021/05/05 05:00:26;;;;;;;3.70;0.80;;;19.60;99.90;;;;;;5049396;28;20263;-75
2021/05/05 05:02:54;;;;;;;3.93;1.00;;;19.60;99.90;;;;;;5050215;28;20203;-76
2021/05/05 05:05:24;;;;;;;2.10;0.90;;;19.40;99.90;;;;;;5071274;28;20216;-78
2021/05/05 05:07:54;;;;;;;3.03;1.33;;;19.20;99.90;;;;;;5063270;28;20540;-75
2021/05/05 05:10:21;;;;;;;4.97;1.10;;;19.30;99.90;;;;;;5063700;28;20230;-73
2021/05/05 05:12:48;;;;;;;5.73;1.37;;;19.10;99.90;;;;;;5049298;28;20223;-76
2021/05/05 05:15:16;;;;;;;3.33;1.13;;;19.00;99.90;;;;;;5060690;28;20182;-74
2021/05/05 05:17:43;;;;;;;3.27;1.00;;;18.90;99.90;;;;;;5049753;28;20522;-72
2021/05/05 05:20:11;;;;;;;4.93;1.20;;;18.90;99.90;;;;;;5055393;28;20194;-76
2021/05/05 05:22:38;;;;;;;3.73;0.90;;;19.00;99.90;;;;;;5060471;28;20187;-77
2021/05/05 05:25:08;;;;;;;6.67;1.20;;;18.90;99.90;;;;;;5049866;28;20555;-78
2021/05/05 05:27:35;;;;;;;3.10;1.07;;;19.00;99.90;;;;;;5059058;28;20661;-73
2021/05/05 05:30:03;;;;;;;4.23;0.93;;;19.10;99.90;;;;;;5057752;28;20219;-71
2021/05/05 05:32:30;;;;;;;4.43;1.00;;;19.20;99.90;;;;;;5050572;28;20686;-74
2021/05/05 05:34:57;;;;;;;2.17;0.70;;;19.50;99.90;;;;;;5053948;28;20204;-70
2021/05/05 05:37:25;;;;;;;2.13;0.83;;;19.70;99.90;;;;;;5054457;28;20183;-71
2021/05/05 05:39:52;;;;;;;3.57;1.10;;;19.50;99.90;;;;;;5048822;28;20271;-74
2021/05/05 05:42:20;;;;;;;3.43;0.60;;;19.50;99.90;;;;;;5053516;28;20180;-73
2021/05/05 05:44:47;;;;;;;9.37;1.47;;;19.20;99.90;;;;;;5052537;28;20238;-71
2021/05/05 05:47:14;;;;;;;3.83;1.10;;;19.10;99.90;;;;;;5050225;28;20259;-72
2021/05/05 05:49:42;;;;;;;3.17;0.80;;;19.10;99.90;;;;;;5052911;28;20187;-74
2021/05/05 05:52:09;;;;;;;4.80;1.33;;;19.00;99.90;;;;;;5052416;28;20234;-71
2021/05/05 05:54:36;;;;;;;6.30;1.30;;;19.00;99.90;;;;;;5052063;28;20215;-71
2021/05/05 05:57:04;;;;;;;3.63;1.07;;;18.90;99.90;;;;;;5055939;28;20187;-71
2021/05/05 05:59:32;;;;;;;3.40;0.90;;;18.80;99.90;;;;;;5053738;28;20192;-69
2021/05/05 06:01:59;;;;;;;3.70;1.23;;;18.80;99.90;;;;;;5052105;28;20191;-72
2021/05/05 06:04:26;;;;;;;3.93;1.17;;;18.80;99.90;;;;;;5051977;28;20541;-71
2021/05/05 06:06:54;;;;;;;3.17;1.03;;;18.80;99.90;;;;;;5052879;28;20525;-71
2021/05/05 06:09:22;;;;;;;3.47;1.00;;;18.70;99.90;;;;;;5052744;28;20188;-74
2021/05/05 06:11:50;;;;;;;1.70;0.80;;;18.70;99.90;;;;;;5052782;28;20212;-70
2021/05/05 06:14:18;;;;;;;3.10;1.33;;;18.70;99.90;;;;;;5053674;28;20646;-70
2021/05/05 06:16:46;;;;;;;4.77;1.73;;;18.70;99.90;;;;;;5051400;28;20188;-73
2021/05/05 06:19:13;;;;;;;3.60;0.83;;;18.70;99.90;;;;;;5056022;28;20199;-74
2021/05/05 06:21:40;;;;;;;4.40;1.30;;;18.70;99.90;;;;;;5057109;28;20237;-75
2021/05/05 06:24:08;;;;;;;3.57;1.10;;;18.70;99.90;;;;;;5055296;28;20183;-73
2021/05/05 06:26:36;;;;;;;5.57;1.20;;;18.70;99.90;;;;;;5057782;28;20198;-71
2021/05/05 06:29:03;;;;;;;6.13;1.33;;;18.70;99.90;;;;;;5054402;28;20190;-70
2021/05/05 06:31:31;;;;;;;10.50;1.50;;;18.70;99.90;;;;;;5052761;28;20281;-75
2021/05/05 06:33:58;;;;;;;6.17;1.80;;;18.60;99.90;;;;;;5052257;28;20215;-70
2021/05/05 06:36:25;;;;;;;6.87;1.27;;;18.60;99.90;;;;;;5052065;28;20202;-70
2021/05/05 06:38:52;;;;;;;7.73;1.70;;;18.70;99.90;;;;;;5050924;28;20184;-71
2021/05/05 06:41:20;;;;;;;5.70;1.73;;;18.70;99.90;;;;;;5053209;28;20615;-70
2021/05/05 06:43:47;;;;;;;6.43;1.13;;;18.60;99.90;;;;;;5053040;28;20210;-70
2021/05/05 06:46:14;;;;;;;6.07;1.30;;;18.60;99.90;;;;;;5040922;28;20643;-70
2021/05/05 06:48:42;;;;;;;7.57;1.73;;;18.60;99.90;;;;;;5066347;28;20195;-71
2021/05/05 06:51:09;;;;;;;11.93;1.80;;;18.70;99.90;;;;;;5059110;28;20230;-70
2021/05/05 06:53:37;;;;;;;10.97;2.07;;;18.60;99.90;;;;;;5059304;28;20670;-68
2021/05/05 06:56:04;;;;;;;8.57;1.50;;;18.50;99.90;;;;;;5055058;28;20278;-72
2021/05/05 06:58:31;;;;;;;10.70;2.00;;;18.40;99.90;;;;;;5058219;28;20221;-71
2021/05/05 07:00:59;;;;;;;9.80;1.73;;;18.30;99.90;;;;;;5053227;28;20186;-70
2021/05/05 07:03:26;;;;;;;10.53;1.70;;;18.30;99.90;;;;;;5063185;28;20210;-71
2021/05/05 07:05:53;;;;;;;8.20;1.97;;;18.30;99.90;;;;;;5046161;28;20188;-70
2021/05/05 07:08:21;;;;;;;7.33;1.47;;;18.30;99.90;;;;;;5066496;28;20209;-70
2021/05/05 07:10:48;;;;;;;7.47;1.67;;;18.30;99.90;;;;;;5055585;28;20258;-70
2021/05/05 07:13:15;;;;;;;9.27;1.70;;;18.20;99.90;;;;;;5068339;28;20195;-70
2021/05/05 07:15:43;;;;;;;6.87;1.50;;;18.20;99.90;;;;;;5059448;28;20278;-69
2021/05/05 07:18:10;;;;;;;10.23;1.77;;;18.10;99.90;;;;;;5055568;28;20191;-69
2021/05/05 07:20:37;;;;;;;9.30;1.87;;;18.10;99.90;;;;;;5051920;28;20187;-70
2021/05/05 07:23:05;;;;;;;8.73;1.30;;;18.00;99.90;;;;;;5063659;28;20539;-71
2021/05/05 07:25:33;;;;;;;6.57;1.60;;;18.00;99.90;;;;;;5061464;28;20246;-70
2021/05/05 07:28:03;;;;;;;8.63;1.57;;;18.00;99.90;;;;;;5058351;28;20187;-72
2021/05/05 07:30:31;;;;;;;7.57;1.70;;;18.00;99.90;;;;;;5068893;28;20241;-71
2021/05/05 07:32:59;;;;;;;8.30;1.60;;;17.90;99.90;;;;;;5052083;28;20844;-72
2021/05/05 07:35:27;;;;;;;11.33;2.30;;;18.00;99.90;;;;;;5051528;28;20176;-71
2021/05/05 07:43:46;;;;;;;9.60;2.33;;;18.00;99.90;;;;;;5052899;28;20179;-74
2021/05/05 07:48:11;;;;;;;15.90;2.07;;;18.00;99.90;;;;;;5044430;28;20172;-74
2021/05/05 07:50:38;;;;;;;16.10;2.83;;;18.10;99.90;;;;;;5052735;28;20675;-73
2021/05/05 07:53:06;;;;;;;9.90;2.33;;;18.10;99.90;;;;;;5052301;28;20207;-73
2021/05/05 07:55:33;;;;;;;9.90;2.20;;;18.10;99.90;;;;;;5046588;28;20179;-76
2021/05/05 07:58:01;;;;;;;11.30;1.63;;;18.10;99.90;;;;;;5051480;28;20188;-70
2021/05/05 08:00:30;;;;;;;11.27;1.87;;;18.10;99.90;;;;;;5051765;28;20658;-73
2021/05/05 08:02:57;;;;;;;3.93;1.43;;;18.10;99.90;;;;;;5051145;28;20225;-71
2021/05/05 08:05:24;;;;;;;3.97;1.40;;;18.10;99.90;;;;;;5052484;28;20215;-71
2021/05/05 08:07:54;;;;;;;6.87;1.20;;;18.10;99.90;;;;;;5052657;28;20176;-73
2021/05/05 08:10:21;;;;;;;4.47;1.37;;;18.10;99.90;;;;;;5051066;28;20215;-72
2021/05/05 08:12:49;;;;;;;7.97;1.10;;;18.00;99.90;;;;;;5051969;28;20310;-73
2021/05/05 08:15:16;;;;;;;6.70;1.60;;;18.10;99.90;;;;;;5052194;28;20242;-71
2021/05/05 08:17:44;;;;;;;6.47;2.00;;;18.10;99.90;;;;;;5050573;28;20383;-71
2021/05/05 08:20:12;;;;;;;9.60;2.23;;;18.10;99.90;;;;;;5050009;28;20199;-72
2021/05/05 08:22:39;;;;;;;9.20;2.17;;;18.10;99.90;;;;;;5051869;28;20179;-74
2021/05/05 08:25:07;;;;;;;7.40;2.13;;;18.10;99.90;;;;;;5051357;28;20583;-73
2021/05/05 08:27:35;;;;;;;11.63;2.23;;;18.20;99.90;;;;;;5052597;28;20191;-71
2021/05/05 08:30:04;;;;;;;6.47;1.23;;;18.20;99.90;;;;;;5052341;28;20242;-70
2021/05/05 08:32:31;;;;;;;6.57;1.40;;;18.20;99.90;;;;;;5051782;28;20223;-69
2021/05/05 08:34:58;;;;;;;8.80;2.10;;;18.20;99.90;;;;;;5052204;28;20219;-73
2021/05/05 08:37:26;;;;;;;7.87;2.07;;;18.20;99.90;;;;;;5046451;28;20188;-73
2021/05/05 08:39:53;;;;;;;9.20;1.70;;;18.20;99.90;;;;;;5050088;28;20179;-71
2021/05/05 08:42:20;;;;;;;8.03;1.43;;;18.20;99.90;;;;;;5051415;28;20626;-71
2021/05/05 08:44:52;;;;;;;14.83;1.83;;;18.20;99.90;;;;;;5048814;28;20191;-70
2021/05/05 08:47:20;;;;;;;5.17;1.43;;;18.20;99.90;;;;;;5050185;28;20544;-71
2021/05/05 08:49:48;;;;;;;6.87;1.37;;;18.20;99.90;;;;;;5050114;28;20195;-71
2021/05/05 08:52:15;;;;;;;10.13;1.73;;;18.10;99.90;;;;;;5050618;28;20212;-69
2021/05/05 08:54:43;;;;;;;12.07;2.23;;;18.10;99.90;;;;;;5045121;28;20251;-73
2021/05/05 08:57:10;;;;;;;11.03;1.80;;;18.10;99.90;;;;;;5051464;28;20563;-70
2021/05/05 08:59:38;;;;;;;8.77;2.00;;;18.00;99.90;;;;;;5052080;28;20176;-69
2021/05/05 09:02:05;;;;;;;12.87;2.87;;;18.00;99.90;;;;;;5051998;28;20669;-71
2021/05/05 09:04:33;;;;;;;17.33;5.40;;;18.00;99.90;;;;;;5051639;28;20604;-70
2021/05/05 09:07:01;;;;;;;12.70;5.87;;;17.90;99.90;;;;;;5049992;28;20179;-71
2021/05/05 09:09:39;;;;;;;11.23;3.30;;;17.90;99.90;;;;;;5050545;28;20180;-71
2021/05/05 09:12:24;;;;;;;11.43;3.33;;;17.80;99.90;;;;;;5051498;28;20329;-70
2021/05/05 09:15:15;;;;;;;11.47;2.50;;;17.80;99.90;;;;;;5048490;28;20180;-69
2021/05/05 09:17:48;;;;;;;11.27;2.60;;;17.90;99.90;;;;;;5051780;28;20180;-70
2021/05/05 09:20:33;;;;;;;8.48;2.30;;;17.80;99.90;;;;;;5050787;28;20396;-70
2021/05/05 09:23:05;;;;;;;9.87;2.23;;;17.80;99.90;;;;;;5051525;28;20175;-72
2021/05/05 09:25:32;;;;;;;5.97;1.83;;;17.80;99.90;;;;;;5045842;28;20205;-70
2021/05/05 09:28:19;;;;;;;5.23;1.67;;;17.80;99.90;;;;;;5050816;28;20292;-69
2021/05/05 09:30:53;;;;;;;8.47;1.60;;;17.80;99.90;;;;;;5051684;28;20227;-72
2021/05/05 09:33:26;;;;;;;16.03;3.07;;;17.70;99.90;;;;;;5051295;28;20655;-70
2021/05/05 09:35:55;;;;;;;7.63;1.60;;;17.80;99.90;;;;;;5051010;28;20176;-70
2021/05/05 09:38:38;;;;;;;10.80;1.70;;;17.80;99.90;;;;;;5050046;28;20192;-70
2021/05/05 09:41:06;;;;;;;9.00;1.50;;;17.70;99.90;;;;;;5051355;28;20184;-72
2021/05/05 09:43:38;;;;;;;7.73;2.40;;;17.80;99.90;;;;;;5067145;28;20528;-73
2021/05/05 09:46:42;;;;;;;8.50;2.00;;;17.80;99.90;;;;;;5057155;28;20171;-70
2021/05/05 09:49:21;;;;;;;9.73;1.57;;;17.70;99.90;;;;;;5037502;28;20653;-71
2021/05/05 09:52:11;;;;;;;8.97;1.60;;;17.70;99.90;;;;;;5051503;28;20212;-71
2021/05/05 09:55:04;;;;;;;11.50;1.50;;;17.70;99.90;;;;;;5050683;28;20275;-71
2021/05/05 09:57:33;;;;;;;7.20;1.53;;;17.70;99.90;;;;;;5051672;28;20226;-70
2021/05/05 10:00:10;;;;;;;3.20;1.33;;;17.70;99.90;;;;;;5055242;28;20509;-72
2021/05/05 10:02:45;;;;;;;8.33;1.53;;;17.70;99.90;;;;;;5053274;28;20172;-74
2021/05/05 10:05:27;;;;;;;6.17;1.10;;;17.60;99.90;;;;;;5054954;28;20594;-77
2021/05/05 10:07:56;;;;;;;9.20;1.67;;;17.60;99.90;;;;;;5054876;28;20229;-73
2021/05/05 10:10:26;;;;;;;2.87;0.97;;;17.70;99.90;;;;;;5054687;28;20180;-72
2021/05/05 10:12:55;;;;;;;5.47;1.30;;;17.70;99.90;;;;;;5055112;28;20238;-72
2021/05/05 10:15:22;;;;;;;4.13;1.33;;;17.70;99.90;;;;;;5052235;28;20509;-71
2021/05/05 10:17:54;;;;;;;5.93;1.33;;;17.70;99.90;;;;;;5052703;28;20180;-73
2021/05/05 10:20:27;;;;;;;4.00;1.10;;;17.70;99.90;;;;;;5053528;28;20182;-78
2021/05/05 10:22:59;;;;;;;5.53;1.10;;;17.70;99.90;;;;;;5053558;28;20231;-72
2021/05/05 10:25:27;;;;;;;6.20;1.17;;;17.60;99.90;;;;;;5054345;28;20179;-76
2021/05/05 10:27:55;;;;;;;5.57;1.40;;;17.70;99.90;;;;;;5052485;28;20219;-73
2021/05/05 10:30:29;;;;;;;4.80;1.23;;;17.60;99.90;;;;;;5054002;28;20238;-71
2021/05/05 10:32:57;;;;;;;8.23;1.03;;;17.60;99.90;;;;;;5053363;28;20271;-75
2021/05/05 10:35:25;;;;;;;3.87;1.00;;;17.60;99.90;;;;;;5054565;28;20233;-74
2021/05/05 10:38:00;;;;;;;3.63;0.97;;;17.60;99.90;;;;;;5053155;28;20214;-70
2021/05/05 10:40:36;;;;;;;4.43;1.07;;;17.60;99.90;;;;;;5054350;28;20202;-70
2021/05/05 10:43:08;;;;;;;7.67;1.57;;;17.60;99.90;;;;;;5054372;28;20760;-72
2021/05/05 10:45:44;;;;;;;7.80;1.30;;;17.60;99.90;;;;;;5051035;28;20233;-73
2021/05/05 10:48:19;;;;;;;7.60;1.50;;;17.60;99.90;;;;;;5053472;28;20234;-72
2021/05/05 10:50:58;;;;;;;6.63;1.90;;;17.60;99.90;;;;;;5052431;28;20535;-71
2021/05/05 10:53:39;;;;;;;6.13;1.83;;;17.60;99.90;;;;;;5052470;28;20184;-70
2021/05/05 10:56:29;;;;;;;5.20;1.80;;;17.50;99.90;;;;;;5048005;28;20186;-71
2021/05/05 10:59:01;;;;;;;7.67;2.07;;;17.50;99.90;;;;;;5054033;28;20262;-71
2021/05/05 11:01:46;;;;;;;4.33;1.83;;;17.50;99.90;;;;;;5052543;28;20642;-70
2021/05/05 11:04:15;;;;;;;4.00;1.60;;;17.50;99.90;;;;;;5054004;28;20176;-71
2021/05/05 11:06:43;;;;;;;5.93;1.83;;;17.50;99.90;;;;;;5053341;28;20172;-70
2021/05/05 11:09:15;;;;;;;8.17;1.83;;;17.50;99.90;;;;;;5053691;28;20572;-71
2021/05/05 11:11:53;;;;;;;13.40;1.60;;;17.50;99.90;;;;;;5052531;28;20676;-72
2021/05/05 11:14:31;;;;;;;10.00;2.30;;;17.50;99.90;;;;;;5053498;28;20187;-72
2021/05/05 11:17:09;;;;;;;8.77;1.50;;;17.40;99.90;;;;;;5053857;28;20198;-72
2021/05/05 11:22:09;;;;;;;5.73;1.27;;;17.50;99.90;;;;;;5053864;28;20183;-74
2021/05/05 11:24:41;;;;;;;3.53;1.70;;;17.50;99.90;;;;;;5051098;28;20188;-70
2021/05/05 11:27:10;;;;;;;3.60;1.00;;;17.50;99.90;;;;;;5053183;28;20190;-70
2021/05/05 11:29:44;;;;;;;4.53;1.20;;;17.50;99.90;;;;;;5053925;28;20190;-71
2021/05/05 11:32:15;;;;;;;6.17;1.10;;;17.40;99.90;;;;;;5053711;28;20223;-71
2021/05/05 11:34:47;;;;;;;6.47;1.63;;;17.40;99.90;;;;;;5052712;28;20187;-70
2021/05/05 11:37:26;;;;;;;9.83;1.30;;;17.40;99.90;;;;;;5053694;28;20183;-70
2021/05/05 11:40:03;;;;;;;7.80;1.73;;;17.40;99.90;;;;;;5052035;28;20211;-70
2021/05/05 11:42:33;;;;;;;6.63;1.33;;;17.40;99.90;;;;;;5053057;28;20183;-73
2021/05/05 11:45:06;;;;;;;6.57;2.03;;;17.30;99.90;;;;;;5039703;28;20530;-70
2021/05/05 11:47:41;;;;;;;9.67;1.87;;;17.30;99.90;;;;;;5053310;28;20176;-73
2021/05/05 11:50:20;;;;;;;7.43;1.30;;;17.40;99.90;;;;;;5053092;28;20254;-72
2021/05/05 11:52:51;;;;;;;6.67;1.20;;;17.30;99.90;;;;;;5050842;28;20223;-71
2021/05/05 11:55:29;;;;;;;5.80;1.33;;;17.40;99.90;;;;;;5049268;28;20207;-72
2021/05/05 11:58:00;;;;;;;7.07;1.30;;;17.40;99.90;;;;;;5052615;28;20215;-70
2021/05/05 12:00:34;;;;;;;7.90;1.77;;;17.40;99.90;;;;;;5052317;28;20180;-72
2021/05/05 12:03:09;;;;;;;5.73;1.93;;;17.40;99.90;;;;;;5052162;28;20172;-73
2021/05/05 12:05:41;;;;;;;6.97;1.43;;;17.40;99.90;;;;;;5046311;28;20180;-74
2021/05/05 12:08:19;;;;;;;8.57;1.80;;;17.40;99.90;;;;;;5048375;28;20175;-71
2021/05/05 12:10:58;;;;;;;8.80;1.80;;;17.40;99.90;;;;;;5062774;28;20270;-73
2021/05/05 12:13:36;;;;;;;6.80;1.30;;;17.40;99.90;;;;;;5065169;28;20313;-72
2021/05/05 12:16:26;;;;;;;8.93;1.90;;;17.40;99.90;;;;;;5054171;28;20176;-73
2021/05/05 12:18:54;;;;;;;7.10;1.10;;;17.40;99.90;;;;;;5054893;28;20173;-72
2021/05/05 12:21:25;;;;;;;6.97;1.47;;;17.40;99.90;;;;;;5046008;28;20259;-71
2021/05/05 12:23:54;;;;;;;11.43;2.17;;;17.40;99.90;;;;;;5051887;28;20176;-72
2021/05/05 12:26:25;;;;;;;8.13;1.50;;;17.40;99.90;;;;;;5050398;28;20187;-74
2021/05/05 12:28:54;;;;;;;11.40;1.47;;;17.30;99.90;;;;;;5054224;28;20263;-71
2021/05/05 12:31:26;;;;;;;7.27;1.70;;;17.30;99.90;;;;;;5052516;28;20227;-71
2021/05/05 12:33:57;;;;;;;7.33;1.60;;;17.30;99.90;;;;;;5040230;28;20216;-71
2021/05/05 12:36:48;;;;;;;6.17;1.23;;;17.30;99.90;;;;;;5051778;28;20524;-73
2021/05/05 12:39:19;;;;;;;3.17;1.07;;;17.30;99.90;;;;;;5052176;28;20184;-73
2021/05/05 12:41:49;;;;;;;6.97;1.53;;;17.20;99.90;;;;;;5051539;28;20179;-74
2021/05/05 12:44:18;;;;;;;7.57;1.63;;;17.20;99.90;;;;;;5051750;28;20180;-74
2021/05/05 12:49:58;;;;;;;5.90;1.90;;;17.10;99.90;;;;;;5022871;28;20271;-81
2021/05/05 12:52:30;;;;;;;9.63;1.73;;;17.10;99.90;;;;;;5051845;28;20211;-80
2021/05/05 12:55:02;;;;;;;8.73;1.63;;;17.00;99.90;;;;;;5052109;28;20180;-75
2021/05/05 12:57:30;;;;;;;4.97;1.70;;;17.00;99.90;;;;;;5052227;28;20622;-77
2021/05/05 12:59:58;;;;;;;7.30;1.40;;;16.90;99.90;;;;;;5052320;28;20175;-82
2021/05/05 13:02:29;;;;;;;7.43;1.60;;;16.90;99.90;;;;;;5051336;28;20274;-73
2021/05/05 13:05:08;;;;;;;4.87;1.70;;;16.80;99.90;;;;;;5051566;28;20535;-82
2021/05/05 13:07:44;;;;;;;8.17;1.57;;;16.90;99.90;;;;;;5052501;28;20179;-80
2021/05/05 13:10:15;;;;;;;8.23;2.10;;;16.80;99.90;;;;;;5051882;28;20580;-83
2021/05/05 13:12:47;;;;;;;4.77;1.50;;;16.90;99.90;;;;;;5051921;28;20222;-82